<?xml version="1.0" encoding="UTF-8" standalone="no" ?>
<gpx xmlns="http://www.topografix.com/GPX/1/1" xmlns:xsi="http://www.w3.org/2001/XMLSchema-instance" xsi:schemaLocation="http://www.topografix.com/GPX/1/1 http://www.topografix.com/GPX/1/1/gpx.xsd" version="1.1" creator="VisuGPX - https://www.visugpx.com">
  <metadata>
    <name>40Km 660 Vernonnaise 2022</name>
  </metadata>
  <trk>
    <name><![CDATA[14378438-Chapelle-40-2022]]></name>
    <trkseg>
      <trkpt lat="49.09794" lon="1.48797">
        <ele>18</ele>
        <time>2022-09-11T14:46:56Z</time>
      </trkpt>
      <trkpt lat="49.09782" lon="1.48829">
        <ele>20</ele>
        <time>2022-09-11T14:47:02Z</time>
      </trkpt>
      <trkpt lat="49.09768" lon="1.48857">
        <ele>20</ele>
        <time>2022-09-11T14:47:07Z</time>
      </trkpt>
      <trkpt lat="49.09713" lon="1.48865">
        <ele>17</ele>
        <time>2022-09-11T14:47:20Z</time>
      </trkpt>
      <trkpt lat="49.09671" lon="1.48876">
        <ele>14</ele>
        <time>2022-09-11T14:47:30Z</time>
      </trkpt>
      <trkpt lat="49.09612" lon="1.48958">
        <ele>15</ele>
        <time>2022-09-11T14:47:49Z</time>
      </trkpt>
      <trkpt lat="49.09565" lon="1.49035">
        <ele>16</ele>
        <time>2022-09-11T14:48:05Z</time>
      </trkpt>
      <trkpt lat="49.09611" lon="1.49125">
        <ele>16</ele>
        <time>2022-09-11T14:48:22Z</time>
      </trkpt>
      <trkpt lat="49.09656" lon="1.49113">
        <ele>16</ele>
        <time>2022-09-11T14:48:33Z</time>
      </trkpt>
      <trkpt lat="49.09674" lon="1.48961">
        <ele>16</ele>
        <time>2022-09-11T14:48:56Z</time>
      </trkpt>
      <trkpt lat="49.09521" lon="1.48706">
        <ele>14</ele>
        <time>2022-09-11T14:49:49Z</time>
      </trkpt>
      <trkpt lat="49.09487" lon="1.48647">
        <ele>18</ele>
        <time>2022-09-11T14:50:01Z</time>
      </trkpt>
      <trkpt lat="49.09474" lon="1.48632">
        <ele>19</ele>
        <time>2022-09-11T14:50:05Z</time>
      </trkpt>
      <trkpt lat="49.0945" lon="1.48672">
        <ele>18</ele>
        <time>2022-09-11T14:50:13Z</time>
      </trkpt>
      <trkpt lat="49.09439" lon="1.48691">
        <ele>18</ele>
        <time>2022-09-11T14:50:17Z</time>
      </trkpt>
      <trkpt lat="49.09433" lon="1.4871">
        <ele>17</ele>
        <time>2022-09-11T14:50:20Z</time>
      </trkpt>
      <trkpt lat="49.09431" lon="1.48728">
        <ele>17</ele>
        <time>2022-09-11T14:50:23Z</time>
      </trkpt>
      <trkpt lat="49.09436" lon="1.48733">
        <ele>17</ele>
        <time>2022-09-11T14:50:25Z</time>
      </trkpt>
      <trkpt lat="49.09437" lon="1.48742">
        <ele>16</ele>
        <time>2022-09-11T14:50:26Z</time>
      </trkpt>
      <trkpt lat="49.09432" lon="1.4875">
        <ele>16</ele>
        <time>2022-09-11T14:50:28Z</time>
      </trkpt>
      <trkpt lat="49.09436" lon="1.48763">
        <ele>16</ele>
        <time>2022-09-11T14:50:30Z</time>
      </trkpt>
      <trkpt lat="49.09464" lon="1.48744">
        <ele>15</ele>
        <time>2022-09-11T14:50:37Z</time>
      </trkpt>
      <trkpt lat="49.09486" lon="1.48719">
        <ele>15</ele>
        <time>2022-09-11T14:50:43Z</time>
      </trkpt>
      <trkpt lat="49.09536" lon="1.48628">
        <ele>16</ele>
        <time>2022-09-11T14:51:02Z</time>
      </trkpt>
      <trkpt lat="49.09556" lon="1.48574">
        <ele>17</ele>
        <time>2022-09-11T14:51:11Z</time>
      </trkpt>
      <trkpt lat="49.09593" lon="1.48455">
        <ele>16</ele>
        <time>2022-09-11T14:51:31Z</time>
      </trkpt>
      <trkpt lat="49.09644" lon="1.4831">
        <ele>15</ele>
        <time>2022-09-11T14:51:56Z</time>
      </trkpt>
      <trkpt lat="49.0967" lon="1.48227">
        <ele>14</ele>
        <time>2022-09-11T14:52:11Z</time>
      </trkpt>
      <trkpt lat="49.09822" lon="1.47852">
        <ele>15</ele>
        <time>2022-09-11T14:53:18Z</time>
      </trkpt>
      <trkpt lat="49.09934" lon="1.47622">
        <ele>18</ele>
        <time>2022-09-11T14:54:02Z</time>
      </trkpt>
      <trkpt lat="49.09892" lon="1.47566">
        <ele>20</ele>
        <time>2022-09-11T14:54:15Z</time>
      </trkpt>
      <trkpt lat="49.09845" lon="1.47664">
        <ele>19</ele>
        <time>2022-09-11T14:54:33Z</time>
      </trkpt>
      <trkpt lat="49.09714" lon="1.47535">
        <ele>22</ele>
        <time>2022-09-11T14:55:10Z</time>
      </trkpt>
      <trkpt lat="49.0969" lon="1.47512">
        <ele>23</ele>
        <time>2022-09-11T14:55:16Z</time>
      </trkpt>
      <trkpt lat="49.09677" lon="1.47516">
        <ele>23</ele>
        <time>2022-09-11T14:55:20Z</time>
      </trkpt>
      <trkpt lat="49.09632" lon="1.4751">
        <ele>23</ele>
        <time>2022-09-11T14:55:30Z</time>
      </trkpt>
      <trkpt lat="49.09441" lon="1.47333">
        <ele>25</ele>
        <time>2022-09-11T14:56:22Z</time>
      </trkpt>
      <trkpt lat="49.09414" lon="1.47308">
        <ele>25</ele>
        <time>2022-09-11T14:56:30Z</time>
      </trkpt>
      <trkpt lat="49.09397" lon="1.47285">
        <ele>25</ele>
        <time>2022-09-11T14:56:35Z</time>
      </trkpt>
      <trkpt lat="49.09353" lon="1.47248">
        <ele>26</ele>
        <time>2022-09-11T14:56:47Z</time>
      </trkpt>
      <trkpt lat="49.09288" lon="1.47214">
        <ele>27</ele>
        <time>2022-09-11T14:57:03Z</time>
      </trkpt>
      <trkpt lat="49.0927" lon="1.47206">
        <ele>27</ele>
        <time>2022-09-11T14:57:07Z</time>
      </trkpt>
      <trkpt lat="49.0926" lon="1.47183">
        <ele>26</ele>
        <time>2022-09-11T14:57:11Z</time>
      </trkpt>
      <trkpt lat="49.0926" lon="1.47159">
        <ele>26</ele>
        <time>2022-09-11T14:57:15Z</time>
      </trkpt>
      <trkpt lat="49.09271" lon="1.47112">
        <ele>26</ele>
        <time>2022-09-11T14:57:23Z</time>
      </trkpt>
      <trkpt lat="49.09267" lon="1.47082">
        <ele>27</ele>
        <time>2022-09-11T14:57:27Z</time>
      </trkpt>
      <trkpt lat="49.08967" lon="1.46767">
        <ele>36</ele>
        <time>2022-09-11T14:58:52Z</time>
      </trkpt>
      <trkpt lat="49.09045" lon="1.46634">
        <ele>33</ele>
        <time>2022-09-11T14:59:20Z</time>
      </trkpt>
      <trkpt lat="49.0901" lon="1.46582">
        <ele>34</ele>
        <time>2022-09-11T14:59:31Z</time>
      </trkpt>
      <trkpt lat="49.09184" lon="1.46289">
        <ele>32</ele>
        <time>2022-09-11T15:00:31Z</time>
      </trkpt>
      <trkpt lat="49.09077" lon="1.46104">
        <ele>36</ele>
        <time>2022-09-11T15:01:09Z</time>
      </trkpt>
      <trkpt lat="49.0903" lon="1.46019">
        <ele>39</ele>
        <time>2022-09-11T15:01:26Z</time>
      </trkpt>
      <trkpt lat="49.08944" lon="1.46191">
        <ele>37</ele>
        <time>2022-09-11T15:01:59Z</time>
      </trkpt>
      <trkpt lat="49.08883" lon="1.46099">
        <ele>42</ele>
        <time>2022-09-11T15:02:19Z</time>
      </trkpt>
      <trkpt lat="49.08861" lon="1.46124">
        <ele>42</ele>
        <time>2022-09-11T15:02:26Z</time>
      </trkpt>
      <trkpt lat="49.08787" lon="1.4601">
        <ele>51</ele>
        <time>2022-09-11T15:02:50Z</time>
      </trkpt>
      <trkpt lat="49.08731" lon="1.45893">
        <ele>63</ele>
        <time>2022-09-11T15:03:12Z</time>
      </trkpt>
      <trkpt lat="49.08692" lon="1.4584">
        <ele>70</ele>
        <time>2022-09-11T15:03:25Z</time>
      </trkpt>
      <trkpt lat="49.08651" lon="1.45819">
        <ele>75</ele>
        <time>2022-09-11T15:03:35Z</time>
      </trkpt>
      <trkpt lat="49.08588" lon="1.45893">
        <ele>74</ele>
        <time>2022-09-11T15:03:53Z</time>
      </trkpt>
      <trkpt lat="49.08542" lon="1.45915">
        <ele>72</ele>
        <time>2022-09-11T15:04:05Z</time>
      </trkpt>
      <trkpt lat="49.08508" lon="1.45968">
        <ele>68</ele>
        <time>2022-09-11T15:04:16Z</time>
      </trkpt>
      <trkpt lat="49.08497" lon="1.45989">
        <ele>67</ele>
        <time>2022-09-11T15:04:20Z</time>
      </trkpt>
      <trkpt lat="49.08469" lon="1.45944">
        <ele>74</ele>
        <time>2022-09-11T15:04:30Z</time>
      </trkpt>
      <trkpt lat="49.08422" lon="1.45997">
        <ele>77</ele>
        <time>2022-09-11T15:04:43Z</time>
      </trkpt>
      <trkpt lat="49.08392" lon="1.4596">
        <ele>84</ele>
        <time>2022-09-11T15:04:52Z</time>
      </trkpt>
      <trkpt lat="49.0836" lon="1.46007">
        <ele>88</ele>
        <time>2022-09-11T15:05:03Z</time>
      </trkpt>
      <trkpt lat="49.08403" lon="1.46061">
        <ele>80</ele>
        <time>2022-09-11T15:05:16Z</time>
      </trkpt>
      <trkpt lat="49.08405" lon="1.46131">
        <ele>78</ele>
        <time>2022-09-11T15:05:26Z</time>
      </trkpt>
      <trkpt lat="49.08364" lon="1.46242">
        <ele>80</ele>
        <time>2022-09-11T15:05:46Z</time>
      </trkpt>
      <trkpt lat="49.08335" lon="1.4623">
        <ele>84</ele>
        <time>2022-09-11T15:05:53Z</time>
      </trkpt>
      <trkpt lat="49.08271" lon="1.46129">
        <ele>96</ele>
        <time>2022-09-11T15:06:14Z</time>
      </trkpt>
      <trkpt lat="49.08215" lon="1.46184">
        <ele>94</ele>
        <time>2022-09-11T15:06:30Z</time>
      </trkpt>
      <trkpt lat="49.08183" lon="1.46163">
        <ele>96</ele>
        <time>2022-09-11T15:06:38Z</time>
      </trkpt>
      <trkpt lat="49.08139" lon="1.46186">
        <ele>91</ele>
        <time>2022-09-11T15:06:49Z</time>
      </trkpt>
      <trkpt lat="49.08096" lon="1.45998">
        <ele>106</ele>
        <time>2022-09-11T15:07:19Z</time>
      </trkpt>
      <trkpt lat="49.08068" lon="1.45927">
        <ele>115</ele>
        <time>2022-09-11T15:07:32Z</time>
      </trkpt>
      <trkpt lat="49.08109" lon="1.45937">
        <ele>114</ele>
        <time>2022-09-11T15:07:42Z</time>
      </trkpt>
      <trkpt lat="49.08124" lon="1.45925">
        <ele>116</ele>
        <time>2022-09-11T15:07:46Z</time>
      </trkpt>
      <trkpt lat="49.08158" lon="1.45825">
        <ele>125</ele>
        <time>2022-09-11T15:08:03Z</time>
      </trkpt>
      <trkpt lat="49.08253" lon="1.45567">
        <ele>135</ele>
        <time>2022-09-11T15:08:48Z</time>
      </trkpt>
      <trkpt lat="49.0841" lon="1.45175">
        <ele>136</ele>
        <time>2022-09-11T15:09:58Z</time>
      </trkpt>
      <trkpt lat="49.08398" lon="1.44939">
        <ele>136</ele>
        <time>2022-09-11T15:10:35Z</time>
      </trkpt>
      <trkpt lat="49.08412" lon="1.44917">
        <ele>136</ele>
        <time>2022-09-11T15:10:39Z</time>
      </trkpt>
      <trkpt lat="49.08464" lon="1.44952">
        <ele>128</ele>
        <time>2022-09-11T15:10:53Z</time>
      </trkpt>
      <trkpt lat="49.08507" lon="1.45045">
        <ele>118</ele>
        <time>2022-09-11T15:11:10Z</time>
      </trkpt>
      <trkpt lat="49.08568" lon="1.45008">
        <ele>105</ele>
        <time>2022-09-11T15:11:25Z</time>
      </trkpt>
      <trkpt lat="49.08588" lon="1.45022">
        <ele>101</ele>
        <time>2022-09-11T15:11:30Z</time>
      </trkpt>
      <trkpt lat="49.08612" lon="1.45069">
        <ele>96</ele>
        <time>2022-09-11T15:11:40Z</time>
      </trkpt>
      <trkpt lat="49.08744" lon="1.44841">
        <ele>86</ele>
        <time>2022-09-11T15:12:26Z</time>
      </trkpt>
      <trkpt lat="49.08729" lon="1.44805">
        <ele>89</ele>
        <time>2022-09-11T15:12:33Z</time>
      </trkpt>
      <trkpt lat="49.08776" lon="1.44725">
        <ele>89</ele>
        <time>2022-09-11T15:12:49Z</time>
      </trkpt>
      <trkpt lat="49.08797" lon="1.44712">
        <ele>88</ele>
        <time>2022-09-11T15:12:54Z</time>
      </trkpt>
      <trkpt lat="49.08826" lon="1.44663">
        <ele>87</ele>
        <time>2022-09-11T15:13:04Z</time>
      </trkpt>
      <trkpt lat="49.08806" lon="1.446">
        <ele>91</ele>
        <time>2022-09-11T15:13:15Z</time>
      </trkpt>
      <trkpt lat="49.08809" lon="1.44523">
        <ele>99</ele>
        <time>2022-09-11T15:13:27Z</time>
      </trkpt>
      <trkpt lat="49.08778" lon="1.44425">
        <ele>110</ele>
        <time>2022-09-11T15:13:44Z</time>
      </trkpt>
      <trkpt lat="49.08785" lon="1.44357">
        <ele>120</ele>
        <time>2022-09-11T15:13:54Z</time>
      </trkpt>
      <trkpt lat="49.08818" lon="1.44274">
        <ele>129</ele>
        <time>2022-09-11T15:14:09Z</time>
      </trkpt>
      <trkpt lat="49.08802" lon="1.44225">
        <ele>134</ele>
        <time>2022-09-11T15:14:17Z</time>
      </trkpt>
      <trkpt lat="49.08757" lon="1.4419">
        <ele>139</ele>
        <time>2022-09-11T15:14:29Z</time>
      </trkpt>
      <trkpt lat="49.08758" lon="1.4395">
        <ele>144</ele>
        <time>2022-09-11T15:15:06Z</time>
      </trkpt>
      <trkpt lat="49.08787" lon="1.43858">
        <ele>142</ele>
        <time>2022-09-11T15:15:21Z</time>
      </trkpt>
      <trkpt lat="49.08781" lon="1.43659">
        <ele>140</ele>
        <time>2022-09-11T15:15:52Z</time>
      </trkpt>
      <trkpt lat="49.08789" lon="1.43543">
        <ele>137</ele>
        <time>2022-09-11T15:16:10Z</time>
      </trkpt>
      <trkpt lat="49.08857" lon="1.43501">
        <ele>136</ele>
        <time>2022-09-11T15:16:27Z</time>
      </trkpt>
      <trkpt lat="49.08993" lon="1.43749">
        <ele>117</ele>
        <time>2022-09-11T15:17:16Z</time>
      </trkpt>
      <trkpt lat="49.09058" lon="1.43795">
        <ele>109</ele>
        <time>2022-09-11T15:17:33Z</time>
      </trkpt>
      <trkpt lat="49.09256" lon="1.44075">
        <ele>80</ele>
        <time>2022-09-11T15:18:36Z</time>
      </trkpt>
      <trkpt lat="49.09289" lon="1.44114">
        <ele>77</ele>
        <time>2022-09-11T15:18:46Z</time>
      </trkpt>
      <trkpt lat="49.0931" lon="1.44205">
        <ele>73</ele>
        <time>2022-09-11T15:19:01Z</time>
      </trkpt>
      <trkpt lat="49.09321" lon="1.44221">
        <ele>71</ele>
        <time>2022-09-11T15:19:04Z</time>
      </trkpt>
      <trkpt lat="49.09353" lon="1.44164">
        <ele>69</ele>
        <time>2022-09-11T15:19:16Z</time>
      </trkpt>
      <trkpt lat="49.09387" lon="1.44159">
        <ele>71</ele>
        <time>2022-09-11T15:19:24Z</time>
      </trkpt>
      <trkpt lat="49.0944" lon="1.44213">
        <ele>70</ele>
        <time>2022-09-11T15:19:39Z</time>
      </trkpt>
      <trkpt lat="49.09474" lon="1.44223">
        <ele>72</ele>
        <time>2022-09-11T15:19:47Z</time>
      </trkpt>
      <trkpt lat="49.09507" lon="1.44233">
        <ele>73</ele>
        <time>2022-09-11T15:19:54Z</time>
      </trkpt>
      <trkpt lat="49.09589" lon="1.44345">
        <ele>73</ele>
        <time>2022-09-11T15:20:20Z</time>
      </trkpt>
      <trkpt lat="49.09649" lon="1.44407">
        <ele>72</ele>
        <time>2022-09-11T15:20:37Z</time>
      </trkpt>
      <trkpt lat="49.09669" lon="1.44448">
        <ele>70</ele>
        <time>2022-09-11T15:20:45Z</time>
      </trkpt>
      <trkpt lat="49.09719" lon="1.44433">
        <ele>70</ele>
        <time>2022-09-11T15:20:57Z</time>
      </trkpt>
      <trkpt lat="49.09753" lon="1.44414">
        <ele>71</ele>
        <time>2022-09-11T15:21:05Z</time>
      </trkpt>
      <trkpt lat="49.0979" lon="1.44485">
        <ele>58</ele>
        <time>2022-09-11T15:21:19Z</time>
      </trkpt>
      <trkpt lat="49.09814" lon="1.44473">
        <ele>57</ele>
        <time>2022-09-11T15:21:25Z</time>
      </trkpt>
      <trkpt lat="49.0984" lon="1.44442">
        <ele>58</ele>
        <time>2022-09-11T15:21:33Z</time>
      </trkpt>
      <trkpt lat="49.09828" lon="1.44424">
        <ele>62</ele>
        <time>2022-09-11T15:21:37Z</time>
      </trkpt>
      <trkpt lat="49.09876" lon="1.44367">
        <ele>60</ele>
        <time>2022-09-11T15:21:51Z</time>
      </trkpt>
      <trkpt lat="49.09893" lon="1.44388">
        <ele>56</ele>
        <time>2022-09-11T15:21:56Z</time>
      </trkpt>
      <trkpt lat="49.09951" lon="1.44314">
        <ele>53</ele>
        <time>2022-09-11T15:22:14Z</time>
      </trkpt>
      <trkpt lat="49.09977" lon="1.44283">
        <ele>52</ele>
        <time>2022-09-11T15:22:21Z</time>
      </trkpt>
      <trkpt lat="49.09967" lon="1.44238">
        <ele>57</ele>
        <time>2022-09-11T15:22:29Z</time>
      </trkpt>
      <trkpt lat="49.1003" lon="1.44185">
        <ele>56</ele>
        <time>2022-09-11T15:22:45Z</time>
      </trkpt>
      <trkpt lat="49.10098" lon="1.44114">
        <ele>55</ele>
        <time>2022-09-11T15:23:05Z</time>
      </trkpt>
      <trkpt lat="49.10111" lon="1.44084">
        <ele>57</ele>
        <time>2022-09-11T15:23:10Z</time>
      </trkpt>
      <trkpt lat="49.10133" lon="1.44096">
        <ele>52</ele>
        <time>2022-09-11T15:23:16Z</time>
      </trkpt>
      <trkpt lat="49.1021" lon="1.44026">
        <ele>51</ele>
        <time>2022-09-11T15:23:36Z</time>
      </trkpt>
      <trkpt lat="49.10236" lon="1.44075">
        <ele>46</ele>
        <time>2022-09-11T15:23:46Z</time>
      </trkpt>
      <trkpt lat="49.10265" lon="1.44075">
        <ele>44</ele>
        <time>2022-09-11T15:23:53Z</time>
      </trkpt>
      <trkpt lat="49.10413" lon="1.43908">
        <ele>42</ele>
        <time>2022-09-11T15:24:36Z</time>
      </trkpt>
      <trkpt lat="49.10517" lon="1.43861">
        <ele>42</ele>
        <time>2022-09-11T15:25:01Z</time>
      </trkpt>
      <trkpt lat="49.10494" lon="1.43786">
        <ele>54</ele>
        <time>2022-09-11T15:25:14Z</time>
      </trkpt>
      <trkpt lat="49.10605" lon="1.43728">
        <ele>44</ele>
        <time>2022-09-11T15:25:41Z</time>
      </trkpt>
      <trkpt lat="49.10601" lon="1.43693">
        <ele>46</ele>
        <time>2022-09-11T15:25:47Z</time>
      </trkpt>
      <trkpt lat="49.10638" lon="1.43671">
        <ele>46</ele>
        <time>2022-09-11T15:25:56Z</time>
      </trkpt>
      <trkpt lat="49.10649" lon="1.43685">
        <ele>45</ele>
        <time>2022-09-11T15:25:59Z</time>
      </trkpt>
      <trkpt lat="49.10687" lon="1.436">
        <ele>53</ele>
        <time>2022-09-11T15:26:15Z</time>
      </trkpt>
      <trkpt lat="49.10671" lon="1.43489">
        <ele>68</ele>
        <time>2022-09-11T15:26:32Z</time>
      </trkpt>
      <trkpt lat="49.10679" lon="1.4349">
        <ele>67</ele>
        <time>2022-09-11T15:26:34Z</time>
      </trkpt>
      <trkpt lat="49.1073" lon="1.43459">
        <ele>67</ele>
        <time>2022-09-11T15:26:47Z</time>
      </trkpt>
      <trkpt lat="49.10815" lon="1.43336">
        <ele>77</ele>
        <time>2022-09-11T15:27:14Z</time>
      </trkpt>
      <trkpt lat="49.10841" lon="1.43398">
        <ele>70</ele>
        <time>2022-09-11T15:27:26Z</time>
      </trkpt>
      <trkpt lat="49.10861" lon="1.434">
        <ele>70</ele>
        <time>2022-09-11T15:27:30Z</time>
      </trkpt>
      <trkpt lat="49.10896" lon="1.43383">
        <ele>71</ele>
        <time>2022-09-11T15:27:39Z</time>
      </trkpt>
      <trkpt lat="49.10984" lon="1.43319">
        <ele>68</ele>
        <time>2022-09-11T15:28:02Z</time>
      </trkpt>
      <trkpt lat="49.11017" lon="1.43337">
        <ele>62</ele>
        <time>2022-09-11T15:28:10Z</time>
      </trkpt>
      <trkpt lat="49.11051" lon="1.43343">
        <ele>59</ele>
        <time>2022-09-11T15:28:18Z</time>
      </trkpt>
      <trkpt lat="49.11114" lon="1.43318">
        <ele>59</ele>
        <time>2022-09-11T15:28:33Z</time>
      </trkpt>
      <trkpt lat="49.11193" lon="1.43312">
        <ele>60</ele>
        <time>2022-09-11T15:28:52Z</time>
      </trkpt>
      <trkpt lat="49.1126" lon="1.43295">
        <ele>60</ele>
        <time>2022-09-11T15:29:07Z</time>
      </trkpt>
      <trkpt lat="49.11318" lon="1.43256">
        <ele>57</ele>
        <time>2022-09-11T15:29:22Z</time>
      </trkpt>
      <trkpt lat="49.11369" lon="1.43203">
        <ele>60</ele>
        <time>2022-09-11T15:29:37Z</time>
      </trkpt>
      <trkpt lat="49.11349" lon="1.43177">
        <ele>64</ele>
        <time>2022-09-11T15:29:43Z</time>
      </trkpt>
      <trkpt lat="49.11308" lon="1.43205">
        <ele>65</ele>
        <time>2022-09-11T15:29:53Z</time>
      </trkpt>
      <trkpt lat="49.11274" lon="1.43146">
        <ele>78</ele>
        <time>2022-09-11T15:30:05Z</time>
      </trkpt>
      <trkpt lat="49.1127" lon="1.43052">
        <ele>83</ele>
        <time>2022-09-11T15:30:20Z</time>
      </trkpt>
      <trkpt lat="49.11281" lon="1.42936">
        <ele>89</ele>
        <time>2022-09-11T15:30:38Z</time>
      </trkpt>
      <trkpt lat="49.11316" lon="1.42864">
        <ele>96</ele>
        <time>2022-09-11T15:30:51Z</time>
      </trkpt>
      <trkpt lat="49.11376" lon="1.42722">
        <ele>109</ele>
        <time>2022-09-11T15:31:17Z</time>
      </trkpt>
      <trkpt lat="49.11456" lon="1.42607">
        <ele>122</ele>
        <time>2022-09-11T15:31:43Z</time>
      </trkpt>
      <trkpt lat="49.11478" lon="1.42446">
        <ele>133</ele>
        <time>2022-09-11T15:32:08Z</time>
      </trkpt>
      <trkpt lat="49.11443" lon="1.4236">
        <ele>136</ele>
        <time>2022-09-11T15:32:23Z</time>
      </trkpt>
      <trkpt lat="49.11381" lon="1.42127">
        <ele>141</ele>
        <time>2022-09-11T15:33:02Z</time>
      </trkpt>
      <trkpt lat="49.11236" lon="1.41806">
        <ele>140</ele>
        <time>2022-09-11T15:34:01Z</time>
      </trkpt>
      <trkpt lat="49.11063" lon="1.4148">
        <ele>138</ele>
        <time>2022-09-11T15:35:06Z</time>
      </trkpt>
      <trkpt lat="49.10944" lon="1.41323">
        <ele>137</ele>
        <time>2022-09-11T15:35:42Z</time>
      </trkpt>
      <trkpt lat="49.10864" lon="1.41189">
        <ele>139</ele>
        <time>2022-09-11T15:36:10Z</time>
      </trkpt>
      <trkpt lat="49.10795" lon="1.41096">
        <ele>143</ele>
        <time>2022-09-11T15:36:32Z</time>
      </trkpt>
      <trkpt lat="49.10686" lon="1.40866">
        <ele>138</ele>
        <time>2022-09-11T15:37:15Z</time>
      </trkpt>
      <trkpt lat="49.10648" lon="1.40745">
        <ele>134</ele>
        <time>2022-09-11T15:37:35Z</time>
      </trkpt>
      <trkpt lat="49.10621" lon="1.40606">
        <ele>131</ele>
        <time>2022-09-11T15:37:58Z</time>
      </trkpt>
      <trkpt lat="49.10578" lon="1.40505">
        <ele>129</ele>
        <time>2022-09-11T15:38:16Z</time>
      </trkpt>
      <trkpt lat="49.10546" lon="1.40484">
        <ele>130</ele>
        <time>2022-09-11T15:38:24Z</time>
      </trkpt>
      <trkpt lat="49.10513" lon="1.40435">
        <ele>130</ele>
        <time>2022-09-11T15:38:35Z</time>
      </trkpt>
      <trkpt lat="49.10456" lon="1.40269">
        <ele>128</ele>
        <time>2022-09-11T15:39:04Z</time>
      </trkpt>
      <trkpt lat="49.10405" lon="1.40076">
        <ele>128</ele>
        <time>2022-09-11T15:39:35Z</time>
      </trkpt>
      <trkpt lat="49.10411" lon="1.39934">
        <ele>128</ele>
        <time>2022-09-11T15:39:57Z</time>
      </trkpt>
      <trkpt lat="49.10435" lon="1.39832">
        <ele>129</ele>
        <time>2022-09-11T15:40:14Z</time>
      </trkpt>
      <trkpt lat="49.10451" lon="1.39525">
        <ele>130</ele>
        <time>2022-09-11T15:41:01Z</time>
      </trkpt>
      <trkpt lat="49.10444" lon="1.39445">
        <ele>131</ele>
        <time>2022-09-11T15:41:13Z</time>
      </trkpt>
      <trkpt lat="49.10206" lon="1.38986">
        <ele>123</ele>
        <time>2022-09-11T15:42:43Z</time>
      </trkpt>
      <trkpt lat="49.10038" lon="1.39001">
        <ele>129</ele>
        <time>2022-09-11T15:43:22Z</time>
      </trkpt>
      <trkpt lat="49.09909" lon="1.39003">
        <ele>130</ele>
        <time>2022-09-11T15:43:52Z</time>
      </trkpt>
      <trkpt lat="49.09729" lon="1.39039">
        <ele>134</ele>
        <time>2022-09-11T15:44:35Z</time>
      </trkpt>
      <trkpt lat="49.09527" lon="1.39076">
        <ele>133</ele>
        <time>2022-09-11T15:45:22Z</time>
      </trkpt>
      <trkpt lat="49.09499" lon="1.39132">
        <ele>133</ele>
        <time>2022-09-11T15:45:33Z</time>
      </trkpt>
      <trkpt lat="49.09471" lon="1.39121">
        <ele>132</ele>
        <time>2022-09-11T15:45:40Z</time>
      </trkpt>
      <trkpt lat="49.0919" lon="1.39299">
        <ele>132</ele>
        <time>2022-09-11T15:46:51Z</time>
      </trkpt>
      <trkpt lat="49.09157" lon="1.39252">
        <ele>133</ele>
        <time>2022-09-11T15:47:01Z</time>
      </trkpt>
      <trkpt lat="49.08855" lon="1.39095">
        <ele>126</ele>
        <time>2022-09-11T15:48:16Z</time>
      </trkpt>
      <trkpt lat="49.0883" lon="1.38962">
        <ele>119</ele>
        <time>2022-09-11T15:48:37Z</time>
      </trkpt>
      <trkpt lat="49.08852" lon="1.38816">
        <ele>114</ele>
        <time>2022-09-11T15:49:00Z</time>
      </trkpt>
      <trkpt lat="49.08876" lon="1.3873">
        <ele>112</ele>
        <time>2022-09-11T15:49:14Z</time>
      </trkpt>
      <trkpt lat="49.09" lon="1.38606">
        <ele>112</ele>
        <time>2022-09-11T15:49:49Z</time>
      </trkpt>
      <trkpt lat="49.09114" lon="1.38254">
        <ele>114</ele>
        <time>2022-09-11T15:50:49Z</time>
      </trkpt>
      <trkpt lat="49.09201" lon="1.38162">
        <ele>112</ele>
        <time>2022-09-11T15:51:13Z</time>
      </trkpt>
      <trkpt lat="49.09349" lon="1.37966">
        <ele>108</ele>
        <time>2022-09-11T15:51:59Z</time>
      </trkpt>
      <trkpt lat="49.09419" lon="1.37874">
        <ele>109</ele>
        <time>2022-09-11T15:52:21Z</time>
      </trkpt>
      <trkpt lat="49.09474" lon="1.37832">
        <ele>103</ele>
        <time>2022-09-11T15:52:35Z</time>
      </trkpt>
      <trkpt lat="49.09536" lon="1.37825">
        <ele>101</ele>
        <time>2022-09-11T15:52:50Z</time>
      </trkpt>
      <trkpt lat="49.09541" lon="1.37821">
        <ele>101</ele>
        <time>2022-09-11T15:52:51Z</time>
      </trkpt>
      <trkpt lat="49.09589" lon="1.37841">
        <ele>102</ele>
        <time>2022-09-11T15:53:03Z</time>
      </trkpt>
      <trkpt lat="49.09681" lon="1.37873">
        <ele>108</ele>
        <time>2022-09-11T15:53:25Z</time>
      </trkpt>
      <trkpt lat="49.09702" lon="1.37895">
        <ele>109</ele>
        <time>2022-09-11T15:53:31Z</time>
      </trkpt>
      <trkpt lat="49.09717" lon="1.37906">
        <ele>109</ele>
        <time>2022-09-11T15:53:34Z</time>
      </trkpt>
      <trkpt lat="49.09741" lon="1.37928">
        <ele>111</ele>
        <time>2022-09-11T15:53:41Z</time>
      </trkpt>
      <trkpt lat="49.09757" lon="1.37968">
        <ele>112</ele>
        <time>2022-09-11T15:53:48Z</time>
      </trkpt>
      <trkpt lat="49.09772" lon="1.37963">
        <ele>111</ele>
        <time>2022-09-11T15:53:52Z</time>
      </trkpt>
      <trkpt lat="49.09831" lon="1.38029">
        <ele>111</ele>
        <time>2022-09-11T15:54:09Z</time>
      </trkpt>
      <trkpt lat="49.099" lon="1.38136">
        <ele>115</ele>
        <time>2022-09-11T15:54:32Z</time>
      </trkpt>
      <trkpt lat="49.10013" lon="1.38304">
        <ele>118</ele>
        <time>2022-09-11T15:55:09Z</time>
      </trkpt>
      <trkpt lat="49.10105" lon="1.38441">
        <ele>127</ele>
        <time>2022-09-11T15:55:39Z</time>
      </trkpt>
      <trkpt lat="49.10209" lon="1.38455">
        <ele>131</ele>
        <time>2022-09-11T15:56:03Z</time>
      </trkpt>
      <trkpt lat="49.10261" lon="1.38483">
        <ele>133</ele>
        <time>2022-09-11T15:56:16Z</time>
      </trkpt>
      <trkpt lat="49.10393" lon="1.38608">
        <ele>132</ele>
        <time>2022-09-11T15:56:52Z</time>
      </trkpt>
      <trkpt lat="49.10432" lon="1.38671">
        <ele>127</ele>
        <time>2022-09-11T15:57:05Z</time>
      </trkpt>
      <trkpt lat="49.10587" lon="1.38916">
        <ele>125</ele>
        <time>2022-09-11T15:57:57Z</time>
      </trkpt>
      <trkpt lat="49.10589" lon="1.39018">
        <ele>123</ele>
        <time>2022-09-11T15:58:13Z</time>
      </trkpt>
      <trkpt lat="49.10694" lon="1.39362">
        <ele>122</ele>
        <time>2022-09-11T15:59:11Z</time>
      </trkpt>
      <trkpt lat="49.10751" lon="1.39452">
        <ele>126</ele>
        <time>2022-09-11T15:59:30Z</time>
      </trkpt>
      <trkpt lat="49.10824" lon="1.39472">
        <ele>117</ele>
        <time>2022-09-11T15:59:48Z</time>
      </trkpt>
      <trkpt lat="49.10866" lon="1.39509">
        <ele>109</ele>
        <time>2022-09-11T15:59:59Z</time>
      </trkpt>
      <trkpt lat="49.10935" lon="1.39576">
        <ele>98</ele>
        <time>2022-09-11T16:00:18Z</time>
      </trkpt>
      <trkpt lat="49.10994" lon="1.3968">
        <ele>94</ele>
        <time>2022-09-11T16:00:39Z</time>
      </trkpt>
      <trkpt lat="49.11016" lon="1.39698">
        <ele>94</ele>
        <time>2022-09-11T16:00:45Z</time>
      </trkpt>
      <trkpt lat="49.11045" lon="1.39688">
        <ele>94</ele>
        <time>2022-09-11T16:00:52Z</time>
      </trkpt>
      <trkpt lat="49.11152" lon="1.39531">
        <ele>91</ele>
        <time>2022-09-11T16:01:26Z</time>
      </trkpt>
      <trkpt lat="49.11267" lon="1.39479">
        <ele>93</ele>
        <time>2022-09-11T16:01:54Z</time>
      </trkpt>
      <trkpt lat="49.11278" lon="1.3951">
        <ele>95</ele>
        <time>2022-09-11T16:02:00Z</time>
      </trkpt>
      <trkpt lat="49.11329" lon="1.39527">
        <ele>95</ele>
        <time>2022-09-11T16:02:12Z</time>
      </trkpt>
      <trkpt lat="49.11386" lon="1.39594">
        <ele>95</ele>
        <time>2022-09-11T16:02:29Z</time>
      </trkpt>
      <trkpt lat="49.11448" lon="1.39666">
        <ele>91</ele>
        <time>2022-09-11T16:02:47Z</time>
      </trkpt>
      <trkpt lat="49.11528" lon="1.39824">
        <ele>87</ele>
        <time>2022-09-11T16:03:18Z</time>
      </trkpt>
      <trkpt lat="49.11567" lon="1.39829">
        <ele>83</ele>
        <time>2022-09-11T16:03:27Z</time>
      </trkpt>
      <trkpt lat="49.11609" lon="1.39895">
        <ele>85</ele>
        <time>2022-09-11T16:03:41Z</time>
      </trkpt>
      <trkpt lat="49.11675" lon="1.40011">
        <ele>93</ele>
        <time>2022-09-11T16:04:04Z</time>
      </trkpt>
      <trkpt lat="49.11724" lon="1.40104">
        <ele>94</ele>
        <time>2022-09-11T16:04:22Z</time>
      </trkpt>
      <trkpt lat="49.11776" lon="1.40116">
        <ele>93</ele>
        <time>2022-09-11T16:04:35Z</time>
      </trkpt>
      <trkpt lat="49.11822" lon="1.40073">
        <ele>92</ele>
        <time>2022-09-11T16:04:47Z</time>
      </trkpt>
      <trkpt lat="49.11811" lon="1.39924">
        <ele>85</ele>
        <time>2022-09-11T16:05:10Z</time>
      </trkpt>
      <trkpt lat="49.11805" lon="1.39842">
        <ele>80</ele>
        <time>2022-09-11T16:05:23Z</time>
      </trkpt>
      <trkpt lat="49.11832" lon="1.39834">
        <ele>83</ele>
        <time>2022-09-11T16:05:29Z</time>
      </trkpt>
      <trkpt lat="49.118" lon="1.39819">
        <ele>78</ele>
        <time>2022-09-11T16:05:37Z</time>
      </trkpt>
      <trkpt lat="49.11769" lon="1.3983">
        <ele>75</ele>
        <time>2022-09-11T16:05:45Z</time>
      </trkpt>
      <trkpt lat="49.11737" lon="1.39878">
        <ele>75</ele>
        <time>2022-09-11T16:05:55Z</time>
      </trkpt>
      <trkpt lat="49.11703" lon="1.39684">
        <ele>65</ele>
        <time>2022-09-11T16:06:26Z</time>
      </trkpt>
      <trkpt lat="49.11734" lon="1.39589">
        <ele>58</ele>
        <time>2022-09-11T16:06:42Z</time>
      </trkpt>
      <trkpt lat="49.11826" lon="1.39582">
        <ele>52</ele>
        <time>2022-09-11T16:07:03Z</time>
      </trkpt>
      <trkpt lat="49.11862" lon="1.39496">
        <ele>52</ele>
        <time>2022-09-11T16:07:19Z</time>
      </trkpt>
      <trkpt lat="49.11933" lon="1.39471">
        <ele>56</ele>
        <time>2022-09-11T16:07:36Z</time>
      </trkpt>
      <trkpt lat="49.12013" lon="1.39325">
        <ele>62</ele>
        <time>2022-09-11T16:08:05Z</time>
      </trkpt>
      <trkpt lat="49.1214" lon="1.39187">
        <ele>72</ele>
        <time>2022-09-11T16:08:42Z</time>
      </trkpt>
      <trkpt lat="49.12248" lon="1.39097">
        <ele>87</ele>
        <time>2022-09-11T16:09:10Z</time>
      </trkpt>
      <trkpt lat="49.12294" lon="1.38966">
        <ele>91</ele>
        <time>2022-09-11T16:09:33Z</time>
      </trkpt>
      <trkpt lat="49.12433" lon="1.38986">
        <ele>95</ele>
        <time>2022-09-11T16:10:06Z</time>
      </trkpt>
      <trkpt lat="49.12485" lon="1.38992">
        <ele>98</ele>
        <time>2022-09-11T16:10:18Z</time>
      </trkpt>
      <trkpt lat="49.1254" lon="1.38992">
        <ele>105</ele>
        <time>2022-09-11T16:10:31Z</time>
      </trkpt>
      <trkpt lat="49.12568" lon="1.39023">
        <ele>107</ele>
        <time>2022-09-11T16:10:39Z</time>
      </trkpt>
      <trkpt lat="49.12489" lon="1.39138">
        <ele>92</ele>
        <time>2022-09-11T16:11:04Z</time>
      </trkpt>
      <trkpt lat="49.12551" lon="1.39265">
        <ele>92</ele>
        <time>2022-09-11T16:11:28Z</time>
      </trkpt>
      <trkpt lat="49.12581" lon="1.39233">
        <ele>96</ele>
        <time>2022-09-11T16:11:37Z</time>
      </trkpt>
      <trkpt lat="49.12631" lon="1.39328">
        <ele>95</ele>
        <time>2022-09-11T16:11:56Z</time>
      </trkpt>
      <trkpt lat="49.12628" lon="1.39394">
        <ele>91</ele>
        <time>2022-09-11T16:12:06Z</time>
      </trkpt>
      <trkpt lat="49.12645" lon="1.39432">
        <ele>90</ele>
        <time>2022-09-11T16:12:13Z</time>
      </trkpt>
      <trkpt lat="49.12605" lon="1.39485">
        <ele>82</ele>
        <time>2022-09-11T16:12:25Z</time>
      </trkpt>
      <trkpt lat="49.12766" lon="1.39654">
        <ele>94</ele>
        <time>2022-09-11T16:13:11Z</time>
      </trkpt>
      <trkpt lat="49.12804" lon="1.39786">
        <ele>94</ele>
        <time>2022-09-11T16:13:33Z</time>
      </trkpt>
      <trkpt lat="49.12936" lon="1.39953">
        <ele>94</ele>
        <time>2022-09-11T16:14:13Z</time>
      </trkpt>
      <trkpt lat="49.12982" lon="1.39983">
        <ele>92</ele>
        <time>2022-09-11T16:14:24Z</time>
      </trkpt>
      <trkpt lat="49.13093" lon="1.40045">
        <ele>90</ele>
        <time>2022-09-11T16:14:52Z</time>
      </trkpt>
      <trkpt lat="49.132" lon="1.40044">
        <ele>86</ele>
        <time>2022-09-11T16:15:17Z</time>
      </trkpt>
      <trkpt lat="49.13189" lon="1.40082">
        <ele>84</ele>
        <time>2022-09-11T16:15:23Z</time>
      </trkpt>
      <trkpt lat="49.1319" lon="1.40194">
        <ele>76</ele>
        <time>2022-09-11T16:15:41Z</time>
      </trkpt>
      <trkpt lat="49.13163" lon="1.40321">
        <ele>62</ele>
        <time>2022-09-11T16:16:01Z</time>
      </trkpt>
      <trkpt lat="49.13172" lon="1.4039">
        <ele>53</ele>
        <time>2022-09-11T16:16:12Z</time>
      </trkpt>
      <trkpt lat="49.1318" lon="1.40435">
        <ele>47</ele>
        <time>2022-09-11T16:16:19Z</time>
      </trkpt>
      <trkpt lat="49.13206" lon="1.40441">
        <ele>44</ele>
        <time>2022-09-11T16:16:25Z</time>
      </trkpt>
      <trkpt lat="49.13227" lon="1.40451">
        <ele>42</ele>
        <time>2022-09-11T16:16:30Z</time>
      </trkpt>
      <trkpt lat="49.13253" lon="1.40451">
        <ele>41</ele>
        <time>2022-09-11T16:16:36Z</time>
      </trkpt>
      <trkpt lat="49.13338" lon="1.4048">
        <ele>43</ele>
        <time>2022-09-11T16:16:56Z</time>
      </trkpt>
      <trkpt lat="49.13343" lon="1.40514">
        <ele>39</ele>
        <time>2022-09-11T16:17:02Z</time>
      </trkpt>
      <trkpt lat="49.13439" lon="1.40561">
        <ele>40</ele>
        <time>2022-09-11T16:17:25Z</time>
      </trkpt>
      <trkpt lat="49.13528" lon="1.40617">
        <ele>34</ele>
        <time>2022-09-11T16:17:48Z</time>
      </trkpt>
      <trkpt lat="49.1362" lon="1.40686">
        <ele>30</ele>
        <time>2022-09-11T16:18:12Z</time>
      </trkpt>
      <trkpt lat="49.13939" lon="1.4105">
        <ele>26</ele>
        <time>2022-09-11T16:19:45Z</time>
      </trkpt>
      <trkpt lat="49.14169" lon="1.41287">
        <ele>20</ele>
        <time>2022-09-11T16:20:49Z</time>
      </trkpt>
      <trkpt lat="49.1424" lon="1.41447">
        <ele>17</ele>
        <time>2022-09-11T16:21:19Z</time>
      </trkpt>
      <trkpt lat="49.14137" lon="1.41646">
        <ele>23</ele>
        <time>2022-09-11T16:21:58Z</time>
      </trkpt>
      <trkpt lat="49.14099" lon="1.41583">
        <ele>32</ele>
        <time>2022-09-11T16:22:11Z</time>
      </trkpt>
      <trkpt lat="49.14072" lon="1.41464">
        <ele>36</ele>
        <time>2022-09-11T16:22:30Z</time>
      </trkpt>
      <trkpt lat="49.14014" lon="1.41373">
        <ele>45</ele>
        <time>2022-09-11T16:22:50Z</time>
      </trkpt>
      <trkpt lat="49.1386" lon="1.41305">
        <ele>65</ele>
        <time>2022-09-11T16:23:27Z</time>
      </trkpt>
      <trkpt lat="49.13805" lon="1.4131">
        <ele>73</ele>
        <time>2022-09-11T16:23:40Z</time>
      </trkpt>
      <trkpt lat="49.1384" lon="1.41334">
        <ele>75</ele>
        <time>2022-09-11T16:23:49Z</time>
      </trkpt>
      <trkpt lat="49.13819" lon="1.41355">
        <ele>81</ele>
        <time>2022-09-11T16:23:55Z</time>
      </trkpt>
      <trkpt lat="49.13108" lon="1.41968">
        <ele>130</ele>
        <time>2022-09-11T16:27:05Z</time>
      </trkpt>
      <trkpt lat="49.13108" lon="1.42128">
        <ele>118</ele>
        <time>2022-09-11T16:27:30Z</time>
      </trkpt>
      <trkpt lat="49.12858" lon="1.42499">
        <ele>77</ele>
        <time>2022-09-11T16:28:51Z</time>
      </trkpt>
      <trkpt lat="49.12825" lon="1.42463">
        <ele>83</ele>
        <time>2022-09-11T16:29:01Z</time>
      </trkpt>
      <trkpt lat="49.12792" lon="1.42506">
        <ele>85</ele>
        <time>2022-09-11T16:29:11Z</time>
      </trkpt>
      <trkpt lat="49.12786" lon="1.42348">
        <ele>97</ele>
        <time>2022-09-11T16:29:35Z</time>
      </trkpt>
      <trkpt lat="49.12739" lon="1.42278">
        <ele>103</ele>
        <time>2022-09-11T16:29:50Z</time>
      </trkpt>
      <trkpt lat="49.12597" lon="1.42183">
        <ele>117</ele>
        <time>2022-09-11T16:30:26Z</time>
      </trkpt>
      <trkpt lat="49.12533" lon="1.42173">
        <ele>126</ele>
        <time>2022-09-11T16:30:41Z</time>
      </trkpt>
      <trkpt lat="49.12453" lon="1.42122">
        <ele>129</ele>
        <time>2022-09-11T16:31:02Z</time>
      </trkpt>
      <trkpt lat="49.12429" lon="1.42212">
        <ele>129</ele>
        <time>2022-09-11T16:31:17Z</time>
      </trkpt>
      <trkpt lat="49.12297" lon="1.4238">
        <ele>133</ele>
        <time>2022-09-11T16:31:57Z</time>
      </trkpt>
      <trkpt lat="49.12259" lon="1.42415">
        <ele>133</ele>
        <time>2022-09-11T16:32:07Z</time>
      </trkpt>
      <trkpt lat="49.12184" lon="1.42427">
        <ele>133</ele>
        <time>2022-09-11T16:32:25Z</time>
      </trkpt>
      <trkpt lat="49.1215" lon="1.42444">
        <ele>133</ele>
        <time>2022-09-11T16:32:33Z</time>
      </trkpt>
      <trkpt lat="49.12123" lon="1.42488">
        <ele>133</ele>
        <time>2022-09-11T16:32:42Z</time>
      </trkpt>
      <trkpt lat="49.12073" lon="1.42552">
        <ele>132</ele>
        <time>2022-09-11T16:32:57Z</time>
      </trkpt>
      <trkpt lat="49.11994" lon="1.42677">
        <ele>126</ele>
        <time>2022-09-11T16:33:24Z</time>
      </trkpt>
      <trkpt lat="49.11926" lon="1.4275">
        <ele>113</ele>
        <time>2022-09-11T16:33:43Z</time>
      </trkpt>
      <trkpt lat="49.11849" lon="1.4276">
        <ele>100</ele>
        <time>2022-09-11T16:34:01Z</time>
      </trkpt>
      <trkpt lat="49.11836" lon="1.42784">
        <ele>96</ele>
        <time>2022-09-11T16:34:06Z</time>
      </trkpt>
      <trkpt lat="49.11821" lon="1.42851">
        <ele>88</ele>
        <time>2022-09-11T16:34:17Z</time>
      </trkpt>
      <trkpt lat="49.11804" lon="1.42886">
        <ele>83</ele>
        <time>2022-09-11T16:34:24Z</time>
      </trkpt>
      <trkpt lat="49.1178" lon="1.42945">
        <ele>74</ele>
        <time>2022-09-11T16:34:34Z</time>
      </trkpt>
      <trkpt lat="49.11776" lon="1.42977">
        <ele>69</ele>
        <time>2022-09-11T16:34:39Z</time>
      </trkpt>
      <trkpt lat="49.11784" lon="1.42991">
        <ele>68</ele>
        <time>2022-09-11T16:34:42Z</time>
      </trkpt>
      <trkpt lat="49.1181" lon="1.43008">
        <ele>68</ele>
        <time>2022-09-11T16:34:49Z</time>
      </trkpt>
      <trkpt lat="49.11832" lon="1.43009">
        <ele>69</ele>
        <time>2022-09-11T16:34:54Z</time>
      </trkpt>
      <trkpt lat="49.11903" lon="1.43015">
        <ele>67</ele>
        <time>2022-09-11T16:35:10Z</time>
      </trkpt>
      <trkpt lat="49.11973" lon="1.43018">
        <ele>64</ele>
        <time>2022-09-11T16:35:27Z</time>
      </trkpt>
      <trkpt lat="49.12056" lon="1.42997">
        <ele>62</ele>
        <time>2022-09-11T16:35:47Z</time>
      </trkpt>
      <trkpt lat="49.12125" lon="1.42979">
        <ele>58</ele>
        <time>2022-09-11T16:36:03Z</time>
      </trkpt>
      <trkpt lat="49.12149" lon="1.42963">
        <ele>58</ele>
        <time>2022-09-11T16:36:09Z</time>
      </trkpt>
      <trkpt lat="49.1217" lon="1.42956">
        <ele>57</ele>
        <time>2022-09-11T16:36:14Z</time>
      </trkpt>
      <trkpt lat="49.12205" lon="1.42957">
        <ele>54</ele>
        <time>2022-09-11T16:36:22Z</time>
      </trkpt>
      <trkpt lat="49.12227" lon="1.4295">
        <ele>54</ele>
        <time>2022-09-11T16:36:27Z</time>
      </trkpt>
      <trkpt lat="49.12208" lon="1.42977">
        <ele>50</ele>
        <time>2022-09-11T16:36:33Z</time>
      </trkpt>
      <trkpt lat="49.12414" lon="1.42915">
        <ele>52</ele>
        <time>2022-09-11T16:37:22Z</time>
      </trkpt>
      <trkpt lat="49.12551" lon="1.42846">
        <ele>55</ele>
        <time>2022-09-11T16:37:56Z</time>
      </trkpt>
      <trkpt lat="49.12595" lon="1.4299">
        <ele>27</ele>
        <time>2022-09-11T16:38:20Z</time>
      </trkpt>
      <trkpt lat="49.12488" lon="1.43063">
        <ele>27</ele>
        <time>2022-09-11T16:38:48Z</time>
      </trkpt>
      <trkpt lat="49.12463" lon="1.43058">
        <ele>29</ele>
        <time>2022-09-11T16:38:54Z</time>
      </trkpt>
      <trkpt lat="49.12439" lon="1.43065">
        <ele>29</ele>
        <time>2022-09-11T16:38:59Z</time>
      </trkpt>
      <trkpt lat="49.12426" lon="1.43066">
        <ele>30</ele>
        <time>2022-09-11T16:39:02Z</time>
      </trkpt>
      <trkpt lat="49.12367" lon="1.43104">
        <ele>30</ele>
        <time>2022-09-11T16:39:17Z</time>
      </trkpt>
      <trkpt lat="49.12358" lon="1.43129">
        <ele>30</ele>
        <time>2022-09-11T16:39:22Z</time>
      </trkpt>
      <trkpt lat="49.1234" lon="1.43143">
        <ele>30</ele>
        <time>2022-09-11T16:39:26Z</time>
      </trkpt>
      <trkpt lat="49.1231" lon="1.43173">
        <ele>29</ele>
        <time>2022-09-11T16:39:35Z</time>
      </trkpt>
      <trkpt lat="49.12162" lon="1.4324">
        <ele>26</ele>
        <time>2022-09-11T16:40:11Z</time>
      </trkpt>
      <trkpt lat="49.1213" lon="1.43249">
        <ele>26</ele>
        <time>2022-09-11T16:40:19Z</time>
      </trkpt>
      <trkpt lat="49.1211" lon="1.43285">
        <ele>26</ele>
        <time>2022-09-11T16:40:26Z</time>
      </trkpt>
      <trkpt lat="49.12072" lon="1.433">
        <ele>26</ele>
        <time>2022-09-11T16:40:35Z</time>
      </trkpt>
      <trkpt lat="49.12007" lon="1.43315">
        <ele>27</ele>
        <time>2022-09-11T16:40:50Z</time>
      </trkpt>
      <trkpt lat="49.11963" lon="1.43315">
        <ele>29</ele>
        <time>2022-09-11T16:41:01Z</time>
      </trkpt>
      <trkpt lat="49.11948" lon="1.43327">
        <ele>28</ele>
        <time>2022-09-11T16:41:04Z</time>
      </trkpt>
      <trkpt lat="49.11923" lon="1.43381">
        <ele>27</ele>
        <time>2022-09-11T16:41:15Z</time>
      </trkpt>
      <trkpt lat="49.11868" lon="1.43399">
        <ele>28</ele>
        <time>2022-09-11T16:41:28Z</time>
      </trkpt>
      <trkpt lat="49.11812" lon="1.43409">
        <ele>29</ele>
        <time>2022-09-11T16:41:41Z</time>
      </trkpt>
      <trkpt lat="49.11781" lon="1.43386">
        <ele>30</ele>
        <time>2022-09-11T16:41:49Z</time>
      </trkpt>
      <trkpt lat="49.11738" lon="1.43368">
        <ele>32</ele>
        <time>2022-09-11T16:41:59Z</time>
      </trkpt>
      <trkpt lat="49.11677" lon="1.43386">
        <ele>31</ele>
        <time>2022-09-11T16:42:14Z</time>
      </trkpt>
      <trkpt lat="49.11638" lon="1.43338">
        <ele>35</ele>
        <time>2022-09-11T16:42:26Z</time>
      </trkpt>
      <trkpt lat="49.11565" lon="1.43367">
        <ele>35</ele>
        <time>2022-09-11T16:42:43Z</time>
      </trkpt>
      <trkpt lat="49.11467" lon="1.43425">
        <ele>34</ele>
        <time>2022-09-11T16:43:08Z</time>
      </trkpt>
      <trkpt lat="49.11424" lon="1.43422">
        <ele>36</ele>
        <time>2022-09-11T16:43:18Z</time>
      </trkpt>
      <trkpt lat="49.11377" lon="1.43458">
        <ele>37</ele>
        <time>2022-09-11T16:43:30Z</time>
      </trkpt>
      <trkpt lat="49.11351" lon="1.43532">
        <ele>34</ele>
        <time>2022-09-11T16:43:43Z</time>
      </trkpt>
      <trkpt lat="49.11302" lon="1.43533">
        <ele>36</ele>
        <time>2022-09-11T16:43:54Z</time>
      </trkpt>
      <trkpt lat="49.11239" lon="1.43573">
        <ele>35</ele>
        <time>2022-09-11T16:44:10Z</time>
      </trkpt>
      <trkpt lat="49.112" lon="1.43611">
        <ele>34</ele>
        <time>2022-09-11T16:44:21Z</time>
      </trkpt>
      <trkpt lat="49.11268" lon="1.43826">
        <ele>26</ele>
        <time>2022-09-11T16:44:58Z</time>
      </trkpt>
      <trkpt lat="49.11354" lon="1.44093">
        <ele>21</ele>
        <time>2022-09-11T16:45:43Z</time>
      </trkpt>
      <trkpt lat="49.11178" lon="1.44224">
        <ele>20</ele>
        <time>2022-09-11T16:46:29Z</time>
      </trkpt>
      <trkpt lat="49.11009" lon="1.44364">
        <ele>21</ele>
        <time>2022-09-11T16:47:14Z</time>
      </trkpt>
      <trkpt lat="49.11109" lon="1.44585">
        <ele>18</ele>
        <time>2022-09-11T16:47:55Z</time>
      </trkpt>
      <trkpt lat="49.11136" lon="1.44672">
        <ele>17</ele>
        <time>2022-09-11T16:48:09Z</time>
      </trkpt>
      <trkpt lat="49.11163" lon="1.44768">
        <ele>17</ele>
        <time>2022-09-11T16:48:25Z</time>
      </trkpt>
      <trkpt lat="49.11177" lon="1.44839">
        <ele>18</ele>
        <time>2022-09-11T16:48:37Z</time>
      </trkpt>
      <trkpt lat="49.11217" lon="1.44978">
        <ele>17</ele>
        <time>2022-09-11T16:49:00Z</time>
      </trkpt>
      <trkpt lat="49.11231" lon="1.45002">
        <ele>17</ele>
        <time>2022-09-11T16:49:05Z</time>
      </trkpt>
      <trkpt lat="49.11226" lon="1.45027">
        <ele>18</ele>
        <time>2022-09-11T16:49:09Z</time>
      </trkpt>
      <trkpt lat="49.11231" lon="1.4504">
        <ele>18</ele>
        <time>2022-09-11T16:49:11Z</time>
      </trkpt>
      <trkpt lat="49.11242" lon="1.45035">
        <ele>18</ele>
        <time>2022-09-11T16:49:14Z</time>
      </trkpt>
      <trkpt lat="49.11246" lon="1.45052">
        <ele>18</ele>
        <time>2022-09-11T16:49:17Z</time>
      </trkpt>
      <trkpt lat="49.11186" lon="1.45132">
        <ele>19</ele>
        <time>2022-09-11T16:49:35Z</time>
      </trkpt>
      <trkpt lat="49.11204" lon="1.45177">
        <ele>19</ele>
        <time>2022-09-11T16:49:43Z</time>
      </trkpt>
      <trkpt lat="49.1127" lon="1.45102">
        <ele>17</ele>
        <time>2022-09-11T16:50:03Z</time>
      </trkpt>
      <trkpt lat="49.11292" lon="1.45098">
        <ele>16</ele>
        <time>2022-09-11T16:50:08Z</time>
      </trkpt>
      <trkpt lat="49.11565" lon="1.45614">
        <ele>12</ele>
        <time>2022-09-11T16:51:49Z</time>
      </trkpt>
      <trkpt lat="49.115" lon="1.45706">
        <ele>13</ele>
        <time>2022-09-11T16:52:10Z</time>
      </trkpt>
      <trkpt lat="49.11448" lon="1.45811">
        <ele>13</ele>
        <time>2022-09-11T16:52:30Z</time>
      </trkpt>
      <trkpt lat="49.11232" lon="1.46269">
        <ele>14</ele>
        <time>2022-09-11T16:53:56Z</time>
      </trkpt>
      <trkpt lat="49.11117" lon="1.46472">
        <ele>13</ele>
        <time>2022-09-11T16:54:37Z</time>
      </trkpt>
      <trkpt lat="49.10994" lon="1.46667">
        <ele>13</ele>
        <time>2022-09-11T16:55:19Z</time>
      </trkpt>
      <trkpt lat="49.10863" lon="1.46849">
        <ele>13</ele>
        <time>2022-09-11T16:56:00Z</time>
      </trkpt>
      <trkpt lat="49.10824" lon="1.46866">
        <ele>14</ele>
        <time>2022-09-11T16:56:09Z</time>
      </trkpt>
      <trkpt lat="49.10619" lon="1.47029">
        <ele>16</ele>
        <time>2022-09-11T16:57:03Z</time>
      </trkpt>
      <trkpt lat="49.10348" lon="1.47153">
        <ele>15</ele>
        <time>2022-09-11T16:58:09Z</time>
      </trkpt>
      <trkpt lat="49.10068" lon="1.47438">
        <ele>16</ele>
        <time>2022-09-11T16:59:28Z</time>
      </trkpt>
      <trkpt lat="49.09883" lon="1.47734">
        <ele>15</ele>
        <time>2022-09-11T17:00:31Z</time>
      </trkpt>
      <trkpt lat="49.0968" lon="1.48229">
        <ele>13</ele>
        <time>2022-09-11T17:02:00Z</time>
      </trkpt>
      <trkpt lat="49.09631" lon="1.48372">
        <ele>15</ele>
        <time>2022-09-11T17:02:25Z</time>
      </trkpt>
      <trkpt lat="49.0954" lon="1.48626">
        <ele>16</ele>
        <time>2022-09-11T17:03:09Z</time>
      </trkpt>
      <trkpt lat="49.09484" lon="1.48717">
        <ele>15</ele>
        <time>2022-09-11T17:03:28Z</time>
      </trkpt>
      <trkpt lat="49.09462" lon="1.48742">
        <ele>15</ele>
        <time>2022-09-11T17:03:34Z</time>
      </trkpt>
      <trkpt lat="49.09437" lon="1.48759">
        <ele>16</ele>
        <time>2022-09-11T17:03:41Z</time>
      </trkpt>
      <trkpt lat="49.09432" lon="1.48749">
        <ele>16</ele>
        <time>2022-09-11T17:03:43Z</time>
      </trkpt>
      <trkpt lat="49.09438" lon="1.48741">
        <ele>16</ele>
        <time>2022-09-11T17:03:45Z</time>
      </trkpt>
      <trkpt lat="49.09435" lon="1.48734">
        <ele>17</ele>
        <time>2022-09-11T17:03:46Z</time>
      </trkpt>
      <trkpt lat="49.09431" lon="1.48728">
        <ele>17</ele>
        <time>2022-09-11T17:03:47Z</time>
      </trkpt>
      <trkpt lat="49.09433" lon="1.4871">
        <ele>17</ele>
        <time>2022-09-11T17:03:50Z</time>
      </trkpt>
      <trkpt lat="49.09439" lon="1.48694">
        <ele>18</ele>
        <time>2022-09-11T17:03:53Z</time>
      </trkpt>
      <trkpt lat="49.09451" lon="1.48673">
        <ele>18</ele>
        <time>2022-09-11T17:03:57Z</time>
      </trkpt>
      <trkpt lat="49.09476" lon="1.48634">
        <ele>19</ele>
        <time>2022-09-11T17:04:05Z</time>
      </trkpt>
      <trkpt lat="49.09489" lon="1.48645">
        <ele>18</ele>
        <time>2022-09-11T17:04:09Z</time>
      </trkpt>
      <trkpt lat="49.09599" lon="1.48833">
        <ele>10</ele>
        <time>2022-09-11T17:04:47Z</time>
      </trkpt>
      <trkpt lat="49.09662" lon="1.48927">
        <ele>15</ele>
        <time>2022-09-11T17:05:08Z</time>
      </trkpt>
      <trkpt lat="49.09676" lon="1.48946">
        <ele>16</ele>
        <time>2022-09-11T17:05:12Z</time>
      </trkpt>
      <trkpt lat="49.09663" lon="1.49032">
        <ele>16</ele>
        <time>2022-09-11T17:05:26Z</time>
      </trkpt>
      <trkpt lat="49.09654" lon="1.49029">
        <ele>16</ele>
        <time>2022-09-11T17:05:28Z</time>
      </trkpt>
      <trkpt lat="49.09616" lon="1.48962">
        <ele>16</ele>
        <time>2022-09-11T17:05:42Z</time>
      </trkpt>
      <trkpt lat="49.09675" lon="1.48888">
        <ele>15</ele>
        <time>2022-09-11T17:05:59Z</time>
      </trkpt>
      <trkpt lat="49.09723" lon="1.48871">
        <ele>18</ele>
        <time>2022-09-11T17:06:11Z</time>
      </trkpt>
      <trkpt lat="49.09772" lon="1.48864">
        <ele>20</ele>
        <time>2022-09-11T17:06:22Z</time>
      </trkpt>
      <trkpt lat="49.0979" lon="1.48814">
        <ele>19</ele>
        <time>2022-09-11T17:06:31Z</time>
      </trkpt>
    </trkseg>
  </trk>
</gpx>